sensor_id;sensor_type;location;lat;lon;timestamp;P1;durP1;ratioP1;P2;durP2;ratioP2
78561;SDS011;68963;52.138;5.446;2023-07-29T00:00:43;4.10;;;1.48;;
78561;SDS011;68963;52.138;5.446;2023-07-29T00:03:10;3.85;;;1.38;;
78561;SDS011;68963;52.138;5.446;2023-07-29T00:05:40;5.50;;;1.45;;
78561;SDS011;68963;52.138;5.446;2023-07-29T00:08:07;3.90;;;1.38;;
78561;SDS011;68963;52.138;5.446;2023-07-29T00:10:35;4.40;;;1.40;;
78561;SDS011;68963;52.138;5.446;2023-07-29T00:13:03;3.92;;;1.50;;
78561;SDS011;68963;52.138;5.446;2023-07-29T00:17:58;4.18;;;1.27;;
78561;SDS011;68963;52.138;5.446;2023-07-29T00:20:25;4.15;;;1.50;;
78561;SDS011;68963;52.138;5.446;2023-07-29T00:22:52;3.70;;;1.40;;
78561;SDS011;68963;52.138;5.446;2023-07-29T00:25:21;3.72;;;1.25;;
78561;SDS011;68963;52.138;5.446;2023-07-29T00:27:48;4.15;;;1.30;;
78561;SDS011;68963;52.138;5.446;2023-07-29T00:30:14;3.67;;;1.40;;
78561;SDS011;68963;52.138;5.446;2023-07-29T00:32:41;3.58;;;1.30;;
78561;SDS011;68963;52.138;5.446;2023-07-29T00:35:08;4.10;;;1.42;;
78561;SDS011;68963;52.138;5.446;2023-07-29T00:37:35;4.75;;;1.60;;
78561;SDS011;68963;52.138;5.446;2023-07-29T00:40:05;3.72;;;1.40;;
78561;SDS011;68963;52.138;5.446;2023-07-29T00:42:42;5.13;;;1.50;;
78561;SDS011;68963;52.138;5.446;2023-07-29T00:45:09;5.18;;;1.60;;
78561;SDS011;68963;52.138;5.446;2023-07-29T00:47:36;7.10;;;2.55;;
78561;SDS011;68963;52.138;5.446;2023-07-29T00:52:32;5.43;;;2.40;;
78561;SDS011;68963;52.138;5.446;2023-07-29T00:54:59;6.78;;;2.20;;
78561;SDS011;68963;52.138;5.446;2023-07-29T00:57:26;4.50;;;1.90;;
78561;SDS011;68963;52.138;5.446;2023-07-29T00:59:54;4.47;;;1.60;;
78561;SDS011;68963;52.138;5.446;2023-07-29T01:02:21;5.28;;;1.52;;
78561;SDS011;68963;52.138;5.446;2023-07-29T01:04:54;4.28;;;1.40;;
78561;SDS011;68963;52.138;5.446;2023-07-29T01:10:10;4.22;;;1.35;;
78561;SDS011;68963;52.138;5.446;2023-07-29T01:15:28;8.50;;;1.63;;
78561;SDS011;68963;52.138;5.446;2023-07-29T01:18:06;4.47;;;1.50;;
78561;SDS011;68963;52.138;5.446;2023-07-29T01:20:38;5.63;;;1.40;;
78561;SDS011;68963;52.138;5.446;2023-07-29T01:23:06;4.75;;;1.60;;
78561;SDS011;68963;52.138;5.446;2023-07-29T01:25:33;6.72;;;1.92;;
78561;SDS011;68963;52.138;5.446;2023-07-29T01:27:59;6.93;;;1.75;;
78561;SDS011;68963;52.138;5.446;2023-07-29T01:30:29;6.53;;;1.83;;
78561;SDS011;68963;52.138;5.446;2023-07-29T01:33:04;4.50;;;1.90;;
78561;SDS011;68963;52.138;5.446;2023-07-29T01:38:35;4.75;;;1.80;;
78561;SDS011;68963;52.138;5.446;2023-07-29T01:41:04;6.03;;;2.00;;
78561;SDS011;68963;52.138;5.446;2023-07-29T01:43:34;5.10;;;1.75;;
78561;SDS011;68963;52.138;5.446;2023-07-29T01:46:12;6.05;;;2.10;;
78561;SDS011;68963;52.138;5.446;2023-07-29T01:48:39;5.32;;;1.85;;
78561;SDS011;68963;52.138;5.446;2023-07-29T01:51:06;4.97;;;1.95;;
78561;SDS011;68963;52.138;5.446;2023-07-29T01:53:33;5.53;;;1.98;;
78561;SDS011;68963;52.138;5.446;2023-07-29T01:56:01;7.20;;;2.40;;
78561;SDS011;68963;52.138;5.446;2023-07-29T01:58:28;9.20;;;2.30;;
78561;SDS011;68963;52.138;5.446;2023-07-29T02:00:54;7.00;;;2.40;;
78561;SDS011;68963;52.138;5.446;2023-07-29T02:03:21;7.55;;;2.30;;
78561;SDS011;68963;52.138;5.446;2023-07-29T02:05:48;5.13;;;2.17;;
78561;SDS011;68963;52.138;5.446;2023-07-29T02:08:14;5.55;;;2.25;;
78561;SDS011;68963;52.138;5.446;2023-07-29T02:10:41;8.02;;;2.30;;
78561;SDS011;68963;52.138;5.446;2023-07-29T02:13:11;6.45;;;2.13;;
78561;SDS011;68963;52.138;5.446;2023-07-29T02:15:38;6.90;;;2.20;;
78561;SDS011;68963;52.138;5.446;2023-07-29T02:18:05;6.55;;;2.40;;
78561;SDS011;68963;52.138;5.446;2023-07-29T02:20:33;6.03;;;2.30;;
78561;SDS011;68963;52.138;5.446;2023-07-29T02:23:00;7.50;;;2.50;;
78561;SDS011;68963;52.138;5.446;2023-07-29T02:25:27;7.07;;;2.30;;
78561;SDS011;68963;52.138;5.446;2023-07-29T02:27:53;6.82;;;2.45;;
78561;SDS011;68963;52.138;5.446;2023-07-29T02:30:20;7.93;;;2.30;;
78561;SDS011;68963;52.138;5.446;2023-07-29T02:32:47;7.03;;;2.65;;
78561;SDS011;68963;52.138;5.446;2023-07-29T02:35:14;6.88;;;2.30;;
78561;SDS011;68963;52.138;5.446;2023-07-29T02:37:41;7.75;;;2.80;;
78561;SDS011;68963;52.138;5.446;2023-07-29T02:40:08;9.77;;;2.70;;
78561;SDS011;68963;52.138;5.446;2023-07-29T02:42:35;11.40;;;3.30;;
78561;SDS011;68963;52.138;5.446;2023-07-29T02:45:02;9.00;;;3.50;;
78561;SDS011;68963;52.138;5.446;2023-07-29T02:47:29;9.38;;;3.45;;
78561;SDS011;68963;52.138;5.446;2023-07-29T02:49:56;8.77;;;3.72;;
78561;SDS011;68963;52.138;5.446;2023-07-29T02:52:22;9.80;;;3.65;;
78561;SDS011;68963;52.138;5.446;2023-07-29T02:54:49;9.13;;;3.78;;
78561;SDS011;68963;52.138;5.446;2023-07-29T02:57:16;8.98;;;3.67;;
78561;SDS011;68963;52.138;5.446;2023-07-29T02:59:43;10.00;;;3.92;;
78561;SDS011;68963;52.138;5.446;2023-07-29T03:02:10;8.30;;;3.78;;
78561;SDS011;68963;52.138;5.446;2023-07-29T03:04:37;10.02;;;4.13;;
78561;SDS011;68963;52.138;5.446;2023-07-29T03:07:03;8.20;;;3.83;;
78561;SDS011;68963;52.138;5.446;2023-07-29T03:09:30;12.90;;;4.57;;
78561;SDS011;68963;52.138;5.446;2023-07-29T03:11:57;10.60;;;4.10;;
78561;SDS011;68963;52.138;5.446;2023-07-29T03:14:25;8.82;;;4.40;;
78561;SDS011;68963;52.138;5.446;2023-07-29T03:16:51;9.95;;;4.00;;
78561;SDS011;68963;52.138;5.446;2023-07-29T03:19:18;10.23;;;3.97;;
78561;SDS011;68963;52.138;5.446;2023-07-29T03:21:45;9.75;;;4.20;;
78561;SDS011;68963;52.138;5.446;2023-07-29T03:24:12;8.57;;;4.22;;
78561;SDS011;68963;52.138;5.446;2023-07-29T03:26:39;7.70;;;3.85;;
78561;SDS011;68963;52.138;5.446;2023-07-29T03:29:08;10.20;;;4.03;;
78561;SDS011;68963;52.138;5.446;2023-07-29T03:31:34;10.95;;;4.10;;
78561;SDS011;68963;52.138;5.446;2023-07-29T03:34:01;8.65;;;4.20;;
78561;SDS011;68963;52.138;5.446;2023-07-29T03:36:27;10.25;;;4.15;;
78561;SDS011;68963;52.138;5.446;2023-07-29T03:38:54;8.52;;;4.30;;
78561;SDS011;68963;52.138;5.446;2023-07-29T03:41:20;8.07;;;3.92;;
78561;SDS011;68963;52.138;5.446;2023-07-29T03:43:47;8.18;;;3.83;;
78561;SDS011;68963;52.138;5.446;2023-07-29T03:46:13;10.60;;;4.45;;
78561;SDS011;68963;52.138;5.446;2023-07-29T03:48:44;8.57;;;3.80;;
78561;SDS011;68963;52.138;5.446;2023-07-29T03:51:10;10.20;;;3.80;;
78561;SDS011;68963;52.138;5.446;2023-07-29T03:53:37;8.48;;;4.05;;
78561;SDS011;68963;52.138;5.446;2023-07-29T03:56:04;8.98;;;3.78;;
78561;SDS011;68963;52.138;5.446;2023-07-29T03:58:30;8.32;;;3.83;;
78561;SDS011;68963;52.138;5.446;2023-07-29T04:00:57;8.85;;;4.05;;
78561;SDS011;68963;52.138;5.446;2023-07-29T04:03:24;8.98;;;3.85;;
78561;SDS011;68963;52.138;5.446;2023-07-29T04:05:53;9.68;;;3.85;;
78561;SDS011;68963;52.138;5.446;2023-07-29T04:08:19;7.35;;;3.60;;
78561;SDS011;68963;52.138;5.446;2023-07-29T04:10:46;7.72;;;3.40;;
78561;SDS011;68963;52.138;5.446;2023-07-29T04:13:13;8.73;;;3.28;;
78561;SDS011;68963;52.138;5.446;2023-07-29T04:15:40;6.72;;;3.10;;
78561;SDS011;68963;52.138;5.446;2023-07-29T04:18:06;8.48;;;3.00;;
78561;SDS011;68963;52.138;5.446;2023-07-29T04:20:33;8.27;;;2.92;;
78561;SDS011;68963;52.138;5.446;2023-07-29T04:23:00;7.60;;;2.90;;
78561;SDS011;68963;52.138;5.446;2023-07-29T04:25:27;6.60;;;2.67;;
78561;SDS011;68963;52.138;5.446;2023-07-29T04:27:54;5.60;;;2.50;;
78561;SDS011;68963;52.138;5.446;2023-07-29T04:30:20;7.43;;;2.53;;
78561;SDS011;68963;52.138;5.446;2023-07-29T04:32:47;6.78;;;2.58;;
78561;SDS011;68963;52.138;5.446;2023-07-29T04:35:15;9.13;;;2.40;;
78561;SDS011;68963;52.138;5.446;2023-07-29T04:37:41;6.43;;;2.42;;
78561;SDS011;68963;52.138;5.446;2023-07-29T04:40:08;4.70;;;1.95;;
78561;SDS011;68963;52.138;5.446;2023-07-29T04:42:36;6.97;;;2.80;;
78561;SDS011;68963;52.138;5.446;2023-07-29T04:45:04;5.30;;;2.00;;
78561;SDS011;68963;52.138;5.446;2023-07-29T04:47:31;5.40;;;2.10;;
78561;SDS011;68963;52.138;5.446;2023-07-29T04:49:58;5.15;;;2.10;;
78561;SDS011;68963;52.138;5.446;2023-07-29T04:52:25;4.85;;;1.95;;
78561;SDS011;68963;52.138;5.446;2023-07-29T04:54:52;4.68;;;1.95;;
78561;SDS011;68963;52.138;5.446;2023-07-29T04:57:18;5.55;;;2.00;;
78561;SDS011;68963;52.138;5.446;2023-07-29T04:59:45;6.65;;;2.17;;
78561;SDS011;68963;52.138;5.446;2023-07-29T05:02:11;5.85;;;2.00;;
78561;SDS011;68963;52.138;5.446;2023-07-29T05:04:38;5.82;;;1.63;;
78561;SDS011;68963;52.138;5.446;2023-07-29T05:07:05;6.07;;;2.10;;
78561;SDS011;68963;52.138;5.446;2023-07-29T05:09:32;4.97;;;2.20;;
78561;SDS011;68963;52.138;5.446;2023-07-29T05:11:58;6.00;;;2.22;;
78561;SDS011;68963;52.138;5.446;2023-07-29T05:14:25;6.57;;;2.03;;
78561;SDS011;68963;52.138;5.446;2023-07-29T05:16:52;5.15;;;2.13;;
78561;SDS011;68963;52.138;5.446;2023-07-29T05:19:19;5.93;;;2.13;;
78561;SDS011;68963;52.138;5.446;2023-07-29T05:21:45;5.72;;;1.90;;
78561;SDS011;68963;52.138;5.446;2023-07-29T05:24:12;5.38;;;1.90;;
78561;SDS011;68963;52.138;5.446;2023-07-29T05:26:39;5.88;;;2.22;;
78561;SDS011;68963;52.138;5.446;2023-07-29T05:29:05;4.75;;;2.10;;
78561;SDS011;68963;52.138;5.446;2023-07-29T05:31:33;5.55;;;2.15;;
78561;SDS011;68963;52.138;5.446;2023-07-29T05:34:02;5.85;;;2.25;;
78561;SDS011;68963;52.138;5.446;2023-07-29T05:36:30;6.30;;;2.30;;
78561;SDS011;68963;52.138;5.446;2023-07-29T05:38:56;7.32;;;2.10;;
78561;SDS011;68963;52.138;5.446;2023-07-29T05:41:23;5.63;;;2.30;;
78561;SDS011;68963;52.138;5.446;2023-07-29T05:43:52;6.45;;;2.30;;
78561;SDS011;68963;52.138;5.446;2023-07-29T05:46:18;6.97;;;2.47;;
78561;SDS011;68963;52.138;5.446;2023-07-29T05:48:45;8.40;;;2.75;;
78561;SDS011;68963;52.138;5.446;2023-07-29T05:51:12;6.20;;;2.38;;
78561;SDS011;68963;52.138;5.446;2023-07-29T05:53:38;6.53;;;2.40;;
78561;SDS011;68963;52.138;5.446;2023-07-29T05:56:05;7.10;;;2.40;;
78561;SDS011;68963;52.138;5.446;2023-07-29T05:58:32;7.75;;;2.70;;
78561;SDS011;68963;52.138;5.446;2023-07-29T06:00:59;7.05;;;2.58;;
78561;SDS011;68963;52.138;5.446;2023-07-29T06:03:26;7.32;;;2.72;;
78561;SDS011;68963;52.138;5.446;2023-07-29T06:05:53;5.63;;;2.45;;
78561;SDS011;68963;52.138;5.446;2023-07-29T06:08:20;7.25;;;2.78;;
78561;SDS011;68963;52.138;5.446;2023-07-29T06:10:47;7.45;;;2.92;;
78561;SDS011;68963;52.138;5.446;2023-07-29T06:13:14;6.65;;;2.63;;
78561;SDS011;68963;52.138;5.446;2023-07-29T06:15:40;7.38;;;2.90;;
78561;SDS011;68963;52.138;5.446;2023-07-29T06:18:07;7.35;;;2.78;;
78561;SDS011;68963;52.138;5.446;2023-07-29T06:20:34;6.50;;;3.05;;
78561;SDS011;68963;52.138;5.446;2023-07-29T06:23:00;12.65;;;2.97;;
78561;SDS011;68963;52.138;5.446;2023-07-29T06:25:30;9.05;;;3.15;;
78561;SDS011;68963;52.138;5.446;2023-07-29T06:27:56;7.55;;;3.03;;
78561;SDS011;68963;52.138;5.446;2023-07-29T06:30:24;7.32;;;3.28;;
78561;SDS011;68963;52.138;5.446;2023-07-29T06:32:51;8.00;;;3.40;;
78561;SDS011;68963;52.138;5.446;2023-07-29T06:35:18;8.77;;;3.28;;
78561;SDS011;68963;52.138;5.446;2023-07-29T06:37:45;7.10;;;3.03;;
78561;SDS011;68963;52.138;5.446;2023-07-29T06:40:11;7.38;;;2.95;;
78561;SDS011;68963;52.138;5.446;2023-07-29T06:42:38;8.30;;;3.13;;
78561;SDS011;68963;52.138;5.446;2023-07-29T06:45:05;7.63;;;3.38;;
78561;SDS011;68963;52.138;5.446;2023-07-29T06:47:32;9.02;;;3.55;;
78561;SDS011;68963;52.138;5.446;2023-07-29T06:49:58;7.80;;;3.20;;
78561;SDS011;68963;52.138;5.446;2023-07-29T06:52:25;9.45;;;3.30;;
78561;SDS011;68963;52.138;5.446;2023-07-29T06:54:52;7.05;;;3.20;;
78561;SDS011;68963;52.138;5.446;2023-07-29T06:57:18;7.57;;;3.55;;
78561;SDS011;68963;52.138;5.446;2023-07-29T06:59:45;9.02;;;4.10;;
78561;SDS011;68963;52.138;5.446;2023-07-29T07:02:11;7.85;;;3.92;;
78561;SDS011;68963;52.138;5.446;2023-07-29T07:04:38;7.47;;;3.80;;
78561;SDS011;68963;52.138;5.446;2023-07-29T07:07:05;7.57;;;3.80;;
78561;SDS011;68963;52.138;5.446;2023-07-29T07:09:32;8.43;;;3.85;;
78561;SDS011;68963;52.138;5.446;2023-07-29T07:11:58;8.43;;;4.20;;
78561;SDS011;68963;52.138;5.446;2023-07-29T07:14:25;7.85;;;4.43;;
78561;SDS011;68963;52.138;5.446;2023-07-29T07:16:52;9.32;;;4.75;;
78561;SDS011;68963;52.138;5.446;2023-07-29T07:19:18;9.40;;;4.70;;
78561;SDS011;68963;52.138;5.446;2023-07-29T07:21:45;9.30;;;4.50;;
78561;SDS011;68963;52.138;5.446;2023-07-29T07:24:12;8.85;;;4.45;;
78561;SDS011;68963;52.138;5.446;2023-07-29T07:26:38;9.90;;;4.75;;
78561;SDS011;68963;52.138;5.446;2023-07-29T07:29:05;7.68;;;4.32;;
78561;SDS011;68963;52.138;5.446;2023-07-29T07:31:32;8.25;;;4.32;;
78561;SDS011;68963;52.138;5.446;2023-07-29T07:34:00;8.85;;;4.40;;
78561;SDS011;68963;52.138;5.446;2023-07-29T07:36:28;9.15;;;4.13;;
78561;SDS011;68963;52.138;5.446;2023-07-29T07:38:55;8.52;;;4.90;;
78561;SDS011;68963;52.138;5.446;2023-07-29T07:41:22;9.05;;;4.30;;
78561;SDS011;68963;52.138;5.446;2023-07-29T07:43:50;9.30;;;4.57;;
78561;SDS011;68963;52.138;5.446;2023-07-29T07:46:16;9.85;;;4.78;;
78561;SDS011;68963;52.138;5.446;2023-07-29T07:48:43;10.35;;;4.03;;
78561;SDS011;68963;52.138;5.446;2023-07-29T07:51:13;7.13;;;4.53;;
78561;SDS011;68963;52.138;5.446;2023-07-29T07:53:40;8.18;;;4.75;;
78561;SDS011;68963;52.138;5.446;2023-07-29T07:56:06;9.25;;;4.85;;
78561;SDS011;68963;52.138;5.446;2023-07-29T07:58:33;10.05;;;4.93;;
78561;SDS011;68963;52.138;5.446;2023-07-29T08:01:01;8.43;;;4.45;;
78561;SDS011;68963;52.138;5.446;2023-07-29T08:03:29;9.23;;;4.57;;
78561;SDS011;68963;52.138;5.446;2023-07-29T08:05:56;7.57;;;4.53;;
78561;SDS011;68963;52.138;5.446;2023-07-29T08:08:22;8.38;;;4.78;;
78561;SDS011;68963;52.138;5.446;2023-07-29T08:10:49;8.90;;;4.75;;
78561;SDS011;68963;52.138;5.446;2023-07-29T08:13:16;9.18;;;4.72;;
78561;SDS011;68963;52.138;5.446;2023-07-29T08:15:45;8.70;;;4.50;;
78561;SDS011;68963;52.138;5.446;2023-07-29T08:18:12;6.90;;;4.35;;
78561;SDS011;68963;52.138;5.446;2023-07-29T08:23:38;7.22;;;4.10;;
78561;SDS011;68963;52.138;5.446;2023-07-29T08:26:05;7.68;;;4.50;;
78561;SDS011;68963;52.138;5.446;2023-07-29T08:28:34;8.57;;;4.22;;
78561;SDS011;68963;52.138;5.446;2023-07-29T08:31:03;7.47;;;3.95;;
78561;SDS011;68963;52.138;5.446;2023-07-29T08:33:30;6.50;;;3.72;;
78561;SDS011;68963;52.138;5.446;2023-07-29T08:35:59;5.55;;;3.20;;
78561;SDS011;68963;52.138;5.446;2023-07-29T08:38:25;8.23;;;3.83;;
78561;SDS011;68963;52.138;5.446;2023-07-29T08:41:14;6.10;;;3.50;;
78561;SDS011;68963;52.138;5.446;2023-07-29T08:43:48;7.63;;;3.45;;
78561;SDS011;68963;52.138;5.446;2023-07-29T08:46:20;6.57;;;3.65;;
78561;SDS011;68963;52.138;5.446;2023-07-29T08:48:47;5.65;;;3.58;;
78561;SDS011;68963;52.138;5.446;2023-07-29T08:51:14;6.55;;;3.47;;
78561;SDS011;68963;52.138;5.446;2023-07-29T08:53:41;5.40;;;3.22;;
78561;SDS011;68963;52.138;5.446;2023-07-29T08:56:09;7.45;;;3.60;;
78561;SDS011;68963;52.138;5.446;2023-07-29T08:58:35;7.18;;;3.25;;
78561;SDS011;68963;52.138;5.446;2023-07-29T09:01:03;8.55;;;3.70;;
78561;SDS011;68963;52.138;5.446;2023-07-29T09:03:29;5.63;;;3.20;;
78561;SDS011;68963;52.138;5.446;2023-07-29T09:05:57;5.30;;;3.03;;
78561;SDS011;68963;52.138;5.446;2023-07-29T09:08:25;7.07;;;3.22;;
78561;SDS011;68963;52.138;5.446;2023-07-29T09:10:53;7.03;;;3.40;;
78561;SDS011;68963;52.138;5.446;2023-07-29T09:13:24;5.95;;;3.38;;
78561;SDS011;68963;52.138;5.446;2023-07-29T09:15:54;8.23;;;3.45;;
78561;SDS011;68963;52.138;5.446;2023-07-29T09:18:25;6.93;;;3.75;;
78561;SDS011;68963;52.138;5.446;2023-07-29T09:20:53;7.57;;;3.42;;
78561;SDS011;68963;52.138;5.446;2023-07-29T09:23:20;7.72;;;4.10;;
78561;SDS011;68963;52.138;5.446;2023-07-29T09:25:47;7.30;;;4.30;;
78561;SDS011;68963;52.138;5.446;2023-07-29T09:28:15;6.30;;;3.92;;
78561;SDS011;68963;52.138;5.446;2023-07-29T09:30:44;7.55;;;4.07;;
78561;SDS011;68963;52.138;5.446;2023-07-29T09:33:13;8.32;;;3.90;;
78561;SDS011;68963;52.138;5.446;2023-07-29T09:35:40;5.80;;;3.72;;
78561;SDS011;68963;52.138;5.446;2023-07-29T09:38:06;6.05;;;3.70;;
78561;SDS011;68963;52.138;5.446;2023-07-29T09:40:45;6.50;;;3.65;;
78561;SDS011;68963;52.138;5.446;2023-07-29T09:43:12;6.28;;;3.47;;
78561;SDS011;68963;52.138;5.446;2023-07-29T09:45:39;8.27;;;3.70;;
78561;SDS011;68963;52.138;5.446;2023-07-29T09:48:06;9.23;;;4.05;;
78561;SDS011;68963;52.138;5.446;2023-07-29T09:50:37;7.07;;;3.95;;
78561;SDS011;68963;52.138;5.446;2023-07-29T09:53:04;6.90;;;3.55;;
78561;SDS011;68963;52.138;5.446;2023-07-29T09:55:33;7.32;;;3.92;;
78561;SDS011;68963;52.138;5.446;2023-07-29T09:58:01;5.82;;;3.85;;
78561;SDS011;68963;52.138;5.446;2023-07-29T10:00:31;8.65;;;4.28;;
78561;SDS011;68963;52.138;5.446;2023-07-29T10:02:58;7.55;;;4.22;;
78561;SDS011;68963;52.138;5.446;2023-07-29T10:07:53;8.55;;;4.75;;
78561;SDS011;68963;52.138;5.446;2023-07-29T10:10:21;8.23;;;5.07;;
78561;SDS011;68963;52.138;5.446;2023-07-29T10:12:48;7.75;;;5.00;;
78561;SDS011;68963;52.138;5.446;2023-07-29T10:15:16;10.27;;;5.05;;
78561;SDS011;68963;52.138;5.446;2023-07-29T10:17:43;9.23;;;4.78;;
78561;SDS011;68963;52.138;5.446;2023-07-29T10:20:15;7.88;;;4.82;;
78561;SDS011;68963;52.138;5.446;2023-07-29T10:22:43;8.10;;;5.07;;
78561;SDS011;68963;52.138;5.446;2023-07-29T10:27:47;6.95;;;5.13;;
78561;SDS011;68963;52.138;5.446;2023-07-29T10:30:18;9.88;;;5.75;;
78561;SDS011;68963;52.138;5.446;2023-07-29T10:32:45;7.60;;;5.30;;
78561;SDS011;68963;52.138;5.446;2023-07-29T10:35:15;7.53;;;5.10;;
78561;SDS011;68963;52.138;5.446;2023-07-29T10:37:42;8.27;;;5.28;;
78561;SDS011;68963;52.138;5.446;2023-07-29T10:40:11;8.65;;;5.20;;
78561;SDS011;68963;52.138;5.446;2023-07-29T10:42:38;8.07;;;5.85;;
78561;SDS011;68963;52.138;5.446;2023-07-29T10:45:25;8.80;;;5.75;;
78561;SDS011;68963;52.138;5.446;2023-07-29T10:47:51;8.77;;;5.50;;
78561;SDS011;68963;52.138;5.446;2023-07-29T10:50:19;8.52;;;5.50;;
78561;SDS011;68963;52.138;5.446;2023-07-29T10:52:50;7.20;;;5.35;;
78561;SDS011;68963;52.138;5.446;2023-07-29T10:55:29;8.95;;;5.60;;
78561;SDS011;68963;52.138;5.446;2023-07-29T10:58:05;8.63;;;5.65;;
78561;SDS011;68963;52.138;5.446;2023-07-29T11:00:41;9.18;;;5.72;;
78561;SDS011;68963;52.138;5.446;2023-07-29T11:03:08;10.43;;;6.03;;
78561;SDS011;68963;52.138;5.446;2023-07-29T11:08:20;8.63;;;5.45;;
78561;SDS011;68963;52.138;5.446;2023-07-29T11:10:58;7.63;;;5.20;;
78561;SDS011;68963;52.138;5.446;2023-07-29T11:13:38;6.60;;;3.60;;
78561;SDS011;68963;52.138;5.446;2023-07-29T11:16:05;6.72;;;3.28;;
78561;SDS011;68963;52.138;5.446;2023-07-29T11:21:00;7.00;;;2.45;;
78561;SDS011;68963;52.138;5.446;2023-07-29T11:25:58;4.78;;;1.98;;
78561;SDS011;68963;52.138;5.446;2023-07-29T11:28:26;3.90;;;1.98;;
78561;SDS011;68963;52.138;5.446;2023-07-29T11:33:22;4.20;;;1.90;;
78561;SDS011;68963;52.138;5.446;2023-07-29T11:35:50;4.45;;;1.55;;
78561;SDS011;68963;52.138;5.446;2023-07-29T11:38:19;4.47;;;1.73;;
78561;SDS011;68963;52.138;5.446;2023-07-29T11:40:53;3.83;;;1.42;;
78561;SDS011;68963;52.138;5.446;2023-07-29T11:43:21;3.80;;;1.30;;
78561;SDS011;68963;52.138;5.446;2023-07-29T11:45:48;3.22;;;1.30;;
78561;SDS011;68963;52.138;5.446;2023-07-29T11:48:17;4.38;;;1.40;;
78561;SDS011;68963;52.138;5.446;2023-07-29T11:50:45;3.65;;;1.40;;
78561;SDS011;68963;52.138;5.446;2023-07-29T11:53:12;4.05;;;1.25;;
78561;SDS011;68963;52.138;5.446;2023-07-29T11:55:42;4.72;;;1.35;;
78561;SDS011;68963;52.138;5.446;2023-07-29T11:58:08;3.45;;;1.30;;
78561;SDS011;68963;52.138;5.446;2023-07-29T12:00:37;4.22;;;1.70;;
78561;SDS011;68963;52.138;5.446;2023-07-29T12:03:04;4.55;;;1.42;;
78561;SDS011;68963;52.138;5.446;2023-07-29T12:05:31;3.40;;;1.50;;
78561;SDS011;68963;52.138;5.446;2023-07-29T12:07:58;4.40;;;1.80;;
78561;SDS011;68963;52.138;5.446;2023-07-29T12:10:25;4.07;;;1.67;;
78561;SDS011;68963;52.138;5.446;2023-07-29T12:12:52;4.40;;;1.70;;
78561;SDS011;68963;52.138;5.446;2023-07-29T12:15:25;4.13;;;1.90;;
78561;SDS011;68963;52.138;5.446;2023-07-29T12:17:53;3.80;;;1.60;;
78561;SDS011;68963;52.138;5.446;2023-07-29T12:20:23;3.58;;;1.60;;
78561;SDS011;68963;52.138;5.446;2023-07-29T12:22:54;4.55;;;1.70;;
78561;SDS011;68963;52.138;5.446;2023-07-29T12:25:22;4.38;;;1.63;;
78561;SDS011;68963;52.138;5.446;2023-07-29T12:27:49;3.78;;;1.63;;
78561;SDS011;68963;52.138;5.446;2023-07-29T12:30:22;4.00;;;1.67;;
78561;SDS011;68963;52.138;5.446;2023-07-29T12:32:49;4.22;;;2.05;;
78561;SDS011;68963;52.138;5.446;2023-07-29T12:35:16;5.03;;;1.67;;
78561;SDS011;68963;52.138;5.446;2023-07-29T12:37:42;3.90;;;1.75;;
78561;SDS011;68963;52.138;5.446;2023-07-29T12:40:31;4.72;;;1.80;;
78561;SDS011;68963;52.138;5.446;2023-07-29T12:42:56;5.13;;;2.03;;
78561;SDS011;68963;52.138;5.446;2023-07-29T12:45:23;4.53;;;2.00;;
78561;SDS011;68963;52.138;5.446;2023-07-29T12:47:53;4.18;;;2.00;;
78561;SDS011;68963;52.138;5.446;2023-07-29T12:50:20;3.72;;;1.90;;
78561;SDS011;68963;52.138;5.446;2023-07-29T12:52:47;3.88;;;1.60;;
78561;SDS011;68963;52.138;5.446;2023-07-29T12:55:14;4.40;;;1.77;;
78561;SDS011;68963;52.138;5.446;2023-07-29T12:57:43;4.30;;;1.67;;
78561;SDS011;68963;52.138;5.446;2023-07-29T13:00:10;3.72;;;1.75;;
78561;SDS011;68963;52.138;5.446;2023-07-29T13:02:37;4.30;;;1.80;;
78561;SDS011;68963;52.138;5.446;2023-07-29T13:05:04;4.47;;;1.90;;
78561;SDS011;68963;52.138;5.446;2023-07-29T13:07:32;3.70;;;1.75;;
78561;SDS011;68963;52.138;5.446;2023-07-29T13:09:59;4.45;;;1.90;;
78561;SDS011;68963;52.138;5.446;2023-07-29T13:12:26;3.97;;;1.77;;
78561;SDS011;68963;52.138;5.446;2023-07-29T13:14:53;4.95;;;1.75;;
78561;SDS011;68963;52.138;5.446;2023-07-29T13:17:22;4.13;;;1.70;;
78561;SDS011;68963;52.138;5.446;2023-07-29T13:19:49;4.00;;;1.52;;
78561;SDS011;68963;52.138;5.446;2023-07-29T13:22:16;3.80;;;1.60;;
78561;SDS011;68963;52.138;5.446;2023-07-29T13:24:43;3.67;;;1.50;;
78561;SDS011;68963;52.138;5.446;2023-07-29T13:27:10;3.67;;;1.27;;
78561;SDS011;68963;52.138;5.446;2023-07-29T13:29:36;3.20;;;1.40;;
78561;SDS011;68963;52.138;5.446;2023-07-29T13:32:03;3.65;;;1.50;;
78561;SDS011;68963;52.138;5.446;2023-07-29T13:34:30;3.20;;;1.27;;
78561;SDS011;68963;52.138;5.446;2023-07-29T13:37:00;3.35;;;1.30;;
78561;SDS011;68963;52.138;5.446;2023-07-29T13:39:26;3.60;;;1.50;;
78561;SDS011;68963;52.138;5.446;2023-07-29T13:41:54;5.03;;;1.50;;
78561;SDS011;68963;52.138;5.446;2023-07-29T13:44:21;4.65;;;1.45;;
78561;SDS011;68963;52.138;5.446;2023-07-29T13:46:48;3.40;;;1.40;;
78561;SDS011;68963;52.138;5.446;2023-07-29T13:49:14;3.38;;;1.27;;
78561;SDS011;68963;52.138;5.446;2023-07-29T13:51:41;3.45;;;1.50;;
78561;SDS011;68963;52.138;5.446;2023-07-29T13:54:09;3.90;;;1.45;;
78561;SDS011;68963;52.138;5.446;2023-07-29T13:56:35;4.90;;;1.60;;
78561;SDS011;68963;52.138;5.446;2023-07-29T13:59:02;4.22;;;1.50;;
78561;SDS011;68963;52.138;5.446;2023-07-29T14:01:29;4.20;;;1.60;;
78561;SDS011;68963;52.138;5.446;2023-07-29T14:03:56;4.95;;;1.65;;
78561;SDS011;68963;52.138;5.446;2023-07-29T14:06:22;4.32;;;1.80;;
78561;SDS011;68963;52.138;5.446;2023-07-29T14:09:09;3.75;;;1.77;;
78561;SDS011;68963;52.138;5.446;2023-07-29T14:11:36;4.07;;;1.90;;
78561;SDS011;68963;52.138;5.446;2023-07-29T14:14:02;3.80;;;1.95;;
78561;SDS011;68963;52.138;5.446;2023-07-29T14:16:29;4.22;;;1.70;;
78561;SDS011;68963;52.138;5.446;2023-07-29T14:18:56;4.05;;;1.73;;
78561;SDS011;68963;52.138;5.446;2023-07-29T14:21:22;4.70;;;2.10;;
78561;SDS011;68963;52.138;5.446;2023-07-29T14:23:49;3.97;;;1.60;;
78561;SDS011;68963;52.138;5.446;2023-07-29T14:26:19;4.00;;;1.73;;
78561;SDS011;68963;52.138;5.446;2023-07-29T14:28:45;3.58;;;1.52;;
78561;SDS011;68963;52.138;5.446;2023-07-29T14:31:12;4.63;;;1.67;;
78561;SDS011;68963;52.138;5.446;2023-07-29T14:33:39;4.80;;;1.83;;
78561;SDS011;68963;52.138;5.446;2023-07-29T14:36:06;3.45;;;1.60;;
78561;SDS011;68963;52.138;5.446;2023-07-29T14:41:01;3.78;;;1.60;;
78561;SDS011;68963;52.138;5.446;2023-07-29T14:43:28;3.67;;;1.63;;
78561;SDS011;68963;52.138;5.446;2023-07-29T14:45:54;5.15;;;1.80;;
78561;SDS011;68963;52.138;5.446;2023-07-29T14:48:21;5.88;;;1.77;;
78561;SDS011;68963;52.138;5.446;2023-07-29T14:50:48;4.75;;;1.50;;
78561;SDS011;68963;52.138;5.446;2023-07-29T14:53:14;4.05;;;1.30;;
78561;SDS011;68963;52.138;5.446;2023-07-29T14:55:41;3.22;;;1.30;;
78561;SDS011;68963;52.138;5.446;2023-07-29T14:58:08;3.92;;;1.20;;
78561;SDS011;68963;52.138;5.446;2023-07-29T15:00:34;3.47;;;1.30;;
78561;SDS011;68963;52.138;5.446;2023-07-29T15:03:02;3.97;;;1.27;;
78561;SDS011;68963;52.138;5.446;2023-07-29T15:05:29;3.28;;;1.30;;
78561;SDS011;68963;52.138;5.446;2023-07-29T15:07:56;3.13;;;1.15;;
78561;SDS011;68963;52.138;5.446;2023-07-29T15:10:23;4.05;;;1.20;;
78561;SDS011;68963;52.138;5.446;2023-07-29T15:12:50;4.15;;;1.33;;
78561;SDS011;68963;52.138;5.446;2023-07-29T15:15:16;4.25;;;1.27;;
78561;SDS011;68963;52.138;5.446;2023-07-29T15:17:43;3.53;;;1.38;;
78561;SDS011;68963;52.138;5.446;2023-07-29T15:20:10;3.58;;;1.38;;
78561;SDS011;68963;52.138;5.446;2023-07-29T15:25:04;3.88;;;1.30;;
78561;SDS011;68963;52.138;5.446;2023-07-29T15:27:31;3.42;;;1.10;;